sensor_id;sensor_type;location;lat;lon;timestamp;P1;durP1;ratioP1;P2;durP2;ratioP2
70545;SDS011;58098;51.680;5.134;2022-10-16T00:00:26;5.03;;;3.13;;
70545;SDS011;58098;51.680;5.134;2022-10-16T00:02:52;8.30;;;3.50;;
70545;SDS011;58098;51.680;5.134;2022-10-16T00:05:17;9.20;;;3.70;;
70545;SDS011;58098;51.680;5.134;2022-10-16T00:07:42;7.17;;;3.90;;
70545;SDS011;58098;51.680;5.134;2022-10-16T00:10:07;6.93;;;3.37;;
70545;SDS011;58098;51.680;5.134;2022-10-16T00:12:32;9.67;;;3.73;;
70545;SDS011;58098;51.680;5.134;2022-10-16T00:14:58;7.50;;;3.03;;
70545;SDS011;58098;51.680;5.134;2022-10-16T00:17:23;6.73;;;3.30;;
70545;SDS011;58098;51.680;5.134;2022-10-16T00:19:48;5.90;;;3.10;;
70545;SDS011;58098;51.680;5.134;2022-10-16T00:22:13;8.23;;;3.67;;
70545;SDS011;58098;51.680;5.134;2022-10-16T00:24:38;6.13;;;3.87;;
70545;SDS011;58098;51.680;5.134;2022-10-16T00:27:03;7.77;;;3.17;;
70545;SDS011;58098;51.680;5.134;2022-10-16T00:29:29;8.43;;;3.63;;
70545;SDS011;58098;51.680;5.134;2022-10-16T00:31:54;7.90;;;3.50;;
70545;SDS011;58098;51.680;5.134;2022-10-16T00:34:19;8.50;;;3.23;;
70545;SDS011;58098;51.680;5.134;2022-10-16T00:36:44;5.27;;;3.73;;
70545;SDS011;58098;51.680;5.134;2022-10-16T00:39:09;6.10;;;3.40;;
70545;SDS011;58098;51.680;5.134;2022-10-16T00:41:35;9.07;;;3.13;;
70545;SDS011;58098;51.680;5.134;2022-10-16T00:44:01;6.10;;;3.17;;
70545;SDS011;58098;51.680;5.134;2022-10-16T00:46:40;7.75;;;3.85;;
70545;SDS011;58098;51.680;5.134;2022-10-16T00:49:10;10.27;;;3.10;;
70545;SDS011;58098;51.680;5.134;2022-10-16T00:51:37;7.85;;;4.32;;
70545;SDS011;58098;51.680;5.134;2022-10-16T00:54:03;6.23;;;3.33;;
70545;SDS011;58098;51.680;5.134;2022-10-16T00:56:29;5.55;;;3.20;;
70545;SDS011;58098;51.680;5.134;2022-10-16T00:58:54;7.03;;;3.73;;
70545;SDS011;58098;51.680;5.134;2022-10-16T01:01:20;5.13;;;3.40;;
70545;SDS011;58098;51.680;5.134;2022-10-16T01:03:45;7.63;;;3.30;;
70545;SDS011;58098;51.680;5.134;2022-10-16T01:09:09;8.17;;;3.23;;
70545;SDS011;58098;51.680;5.134;2022-10-16T01:11:46;5.13;;;3.15;;
70545;SDS011;58098;51.680;5.134;2022-10-16T01:14:26;5.45;;;3.10;;
70545;SDS011;58098;51.680;5.134;2022-10-16T01:19:41;4.82;;;2.95;;
70545;SDS011;58098;51.680;5.134;2022-10-16T01:22:09;4.40;;;2.60;;
70545;SDS011;58098;51.680;5.134;2022-10-16T01:24:42;6.03;;;2.88;;
70545;SDS011;58098;51.680;5.134;2022-10-16T01:27:12;7.17;;;2.50;;
70545;SDS011;58098;51.680;5.134;2022-10-16T01:29:40;5.68;;;2.80;;
70545;SDS011;58098;51.680;5.134;2022-10-16T01:35:11;6.28;;;2.90;;
70545;SDS011;58098;51.680;5.134;2022-10-16T01:37:44;8.23;;;2.90;;
70545;SDS011;58098;51.680;5.134;2022-10-16T01:40:12;4.23;;;2.50;;
70545;SDS011;58098;51.680;5.134;2022-10-16T01:42:41;3.45;;;2.45;;
70545;SDS011;58098;51.680;5.134;2022-10-16T01:45:06;4.35;;;2.70;;
70545;SDS011;58098;51.680;5.134;2022-10-16T01:47:32;5.72;;;2.65;;
70545;SDS011;58098;51.680;5.134;2022-10-16T01:49:59;3.78;;;2.58;;
70545;SDS011;58098;51.680;5.134;2022-10-16T01:52:26;4.23;;;2.60;;
70545;SDS011;58098;51.680;5.134;2022-10-16T01:54:52;4.10;;;2.78;;
70545;SDS011;58098;51.680;5.134;2022-10-16T01:57:18;3.60;;;2.65;;
70545;SDS011;58098;51.680;5.134;2022-10-16T01:59:46;4.82;;;2.78;;
70545;SDS011;58098;51.680;5.134;2022-10-16T02:02:12;9.57;;;3.00;;
70545;SDS011;58098;51.680;5.134;2022-10-16T02:04:39;6.57;;;3.00;;
70545;SDS011;58098;51.680;5.134;2022-10-16T02:07:07;15.50;;;3.70;;
70545;SDS011;58098;51.680;5.134;2022-10-16T02:09:33;5.03;;;3.00;;
70545;SDS011;58098;51.680;5.134;2022-10-16T02:11:59;5.95;;;3.08;;
70545;SDS011;58098;51.680;5.134;2022-10-16T02:14:27;6.20;;;3.00;;
70545;SDS011;58098;51.680;5.134;2022-10-16T02:16:53;4.27;;;2.57;;
70545;SDS011;58098;51.680;5.134;2022-10-16T02:19:18;10.40;;;2.97;;
70545;SDS011;58098;51.680;5.134;2022-10-16T02:21:53;3.13;;;2.60;;
70545;SDS011;58098;51.680;5.134;2022-10-16T02:29:13;4.60;;;3.15;;
70545;SDS011;58098;51.680;5.134;2022-10-16T02:31:41;6.60;;;2.67;;
70545;SDS011;58098;51.680;5.134;2022-10-16T02:34:08;3.78;;;2.47;;
70545;SDS011;58098;51.680;5.134;2022-10-16T02:36:35;4.88;;;2.90;;
70545;SDS011;58098;51.680;5.134;2022-10-16T02:39:01;4.40;;;2.50;;
70545;SDS011;58098;51.680;5.134;2022-10-16T02:41:26;4.55;;;2.88;;
70545;SDS011;58098;51.680;5.134;2022-10-16T02:43:52;4.33;;;2.70;;
70545;SDS011;58098;51.680;5.134;2022-10-16T02:46:17;5.80;;;2.50;;
70545;SDS011;58098;51.680;5.134;2022-10-16T02:48:43;6.67;;;3.03;;
70545;SDS011;58098;51.680;5.134;2022-10-16T02:51:08;5.20;;;2.57;;
70545;SDS011;58098;51.680;5.134;2022-10-16T02:53:33;3.60;;;2.30;;
70545;SDS011;58098;51.680;5.134;2022-10-16T02:55:58;5.27;;;2.50;;
70545;SDS011;58098;51.680;5.134;2022-10-16T02:58:23;2.93;;;2.40;;
70545;SDS011;58098;51.680;5.134;2022-10-16T03:00:49;4.73;;;2.73;;
70545;SDS011;58098;51.680;5.134;2022-10-16T03:03:14;5.40;;;2.63;;
70545;SDS011;58098;51.680;5.134;2022-10-16T03:05:39;2.90;;;2.00;;
70545;SDS011;58098;51.680;5.134;2022-10-16T03:08:04;3.47;;;2.30;;
70545;SDS011;58098;51.680;5.134;2022-10-16T03:10:30;6.23;;;3.17;;
70545;SDS011;58098;51.680;5.134;2022-10-16T03:12:55;3.73;;;2.20;;
70545;SDS011;58098;51.680;5.134;2022-10-16T03:15:20;3.53;;;2.37;;
70545;SDS011;58098;51.680;5.134;2022-10-16T03:17:45;5.33;;;2.53;;
70545;SDS011;58098;51.680;5.134;2022-10-16T03:20:10;7.83;;;2.67;;
70545;SDS011;58098;51.680;5.134;2022-10-16T03:22:36;4.83;;;2.77;;
70545;SDS011;58098;51.680;5.134;2022-10-16T03:25:01;5.93;;;2.23;;
70545;SDS011;58098;51.680;5.134;2022-10-16T03:27:26;4.60;;;2.30;;
70545;SDS011;58098;51.680;5.134;2022-10-16T03:29:51;3.40;;;2.40;;
70545;SDS011;58098;51.680;5.134;2022-10-16T03:32:16;2.70;;;2.30;;
70545;SDS011;58098;51.680;5.134;2022-10-16T03:34:42;4.07;;;2.50;;
70545;SDS011;58098;51.680;5.134;2022-10-16T03:37:07;4.10;;;2.50;;
70545;SDS011;58098;51.680;5.134;2022-10-16T03:39:32;7.63;;;2.40;;
70545;SDS011;58098;51.680;5.134;2022-10-16T03:41:57;2.63;;;2.30;;
70545;SDS011;58098;51.680;5.134;2022-10-16T03:44:22;3.43;;;2.67;;
70545;SDS011;58098;51.680;5.134;2022-10-16T03:46:48;5.10;;;2.63;;
70545;SDS011;58098;51.680;5.134;2022-10-16T03:49:13;3.73;;;2.73;;
70545;SDS011;58098;51.680;5.134;2022-10-16T03:51:38;4.87;;;2.57;;
70545;SDS011;58098;51.680;5.134;2022-10-16T03:54:03;3.93;;;2.50;;
70545;SDS011;58098;51.680;5.134;2022-10-16T03:56:28;5.07;;;2.87;;
70545;SDS011;58098;51.680;5.134;2022-10-16T03:58:53;4.07;;;2.97;;
70545;SDS011;58098;51.680;5.134;2022-10-16T04:01:19;5.90;;;2.80;;
70545;SDS011;58098;51.680;5.134;2022-10-16T04:03:44;4.80;;;2.70;;
70545;SDS011;58098;51.680;5.134;2022-10-16T04:06:09;6.23;;;2.70;;
70545;SDS011;58098;51.680;5.134;2022-10-16T04:08:34;4.33;;;2.53;;
70545;SDS011;58098;51.680;5.134;2022-10-16T04:11:01;3.53;;;2.60;;
70545;SDS011;58098;51.680;5.134;2022-10-16T04:13:27;3.87;;;2.50;;
70545;SDS011;58098;51.680;5.134;2022-10-16T04:15:52;5.43;;;2.63;;
70545;SDS011;58098;51.680;5.134;2022-10-16T04:18:17;9.00;;;2.97;;
70545;SDS011;58098;51.680;5.134;2022-10-16T04:20:42;6.73;;;2.53;;
70545;SDS011;58098;51.680;5.134;2022-10-16T04:23:07;6.37;;;2.73;;
70545;SDS011;58098;51.680;5.134;2022-10-16T04:25:33;4.67;;;2.77;;
70545;SDS011;58098;51.680;5.134;2022-10-16T04:27:58;5.57;;;2.90;;
70545;SDS011;58098;51.680;5.134;2022-10-16T04:30:23;4.20;;;2.53;;
70545;SDS011;58098;51.680;5.134;2022-10-16T04:32:49;6.47;;;2.90;;
70545;SDS011;58098;51.680;5.134;2022-10-16T04:35:15;5.70;;;2.90;;
70545;SDS011;58098;51.680;5.134;2022-10-16T04:37:40;6.37;;;2.93;;
70545;SDS011;58098;51.680;5.134;2022-10-16T04:40:05;6.80;;;3.60;;
70545;SDS011;58098;51.680;5.134;2022-10-16T04:42:30;5.10;;;3.17;;
70545;SDS011;58098;51.680;5.134;2022-10-16T04:44:55;4.67;;;3.07;;
70545;SDS011;58098;51.680;5.134;2022-10-16T04:47:21;5.67;;;3.10;;
70545;SDS011;58098;51.680;5.134;2022-10-16T04:49:46;8.93;;;2.93;;
70545;SDS011;58098;51.680;5.134;2022-10-16T04:52:11;5.73;;;2.90;;
70545;SDS011;58098;51.680;5.134;2022-10-16T04:54:36;4.53;;;3.10;;
70545;SDS011;58098;51.680;5.134;2022-10-16T04:57:02;6.05;;;2.85;;
70545;SDS011;58098;51.680;5.134;2022-10-16T04:59:27;3.23;;;2.93;;
70545;SDS011;58098;51.680;5.134;2022-10-16T05:01:52;6.60;;;3.50;;
70545;SDS011;58098;51.680;5.134;2022-10-16T05:04:17;7.63;;;3.50;;
70545;SDS011;58098;51.680;5.134;2022-10-16T05:06:43;7.53;;;3.50;;
70545;SDS011;58098;51.680;5.134;2022-10-16T05:09:08;6.23;;;3.57;;
70545;SDS011;58098;51.680;5.134;2022-10-16T05:11:33;7.03;;;3.27;;
70545;SDS011;58098;51.680;5.134;2022-10-16T05:13:59;5.40;;;3.20;;
70545;SDS011;58098;51.680;5.134;2022-10-16T05:16:24;10.10;;;3.25;;
70545;SDS011;58098;51.680;5.134;2022-10-16T05:18:50;4.23;;;2.63;;
70545;SDS011;58098;51.680;5.134;2022-10-16T05:21:16;6.63;;;3.42;;
70545;SDS011;58098;51.680;5.134;2022-10-16T05:23:41;7.50;;;3.40;;
70545;SDS011;58098;51.680;5.134;2022-10-16T05:26:06;5.65;;;3.25;;
70545;SDS011;58098;51.680;5.134;2022-10-16T05:28:31;5.30;;;3.53;;
70545;SDS011;58098;51.680;5.134;2022-10-16T05:30:56;8.10;;;3.55;;
70545;SDS011;58098;51.680;5.134;2022-10-16T05:33:22;3.45;;;3.05;;
70545;SDS011;58098;51.680;5.134;2022-10-16T05:35:48;7.33;;;3.50;;
70545;SDS011;58098;51.680;5.134;2022-10-16T05:38:14;7.97;;;3.08;;
70545;SDS011;58098;51.680;5.134;2022-10-16T05:40:39;12.33;;;3.13;;
70545;SDS011;58098;51.680;5.134;2022-10-16T05:43:05;12.80;;;3.70;;
70545;SDS011;58098;51.680;5.134;2022-10-16T05:45:30;8.33;;;3.33;;
70545;SDS011;58098;51.680;5.134;2022-10-16T05:47:55;8.10;;;3.10;;
70545;SDS011;58098;51.680;5.134;2022-10-16T05:50:20;6.33;;;3.20;;
70545;SDS011;58098;51.680;5.134;2022-10-16T05:52:45;8.73;;;3.40;;
70545;SDS011;58098;51.680;5.134;2022-10-16T05:55:11;6.70;;;3.17;;
70545;SDS011;58098;51.680;5.134;2022-10-16T05:57:36;7.90;;;3.33;;
70545;SDS011;58098;51.680;5.134;2022-10-16T06:00:01;5.77;;;3.30;;
70545;SDS011;58098;51.680;5.134;2022-10-16T06:02:26;9.97;;;3.60;;
70545;SDS011;58098;51.680;5.134;2022-10-16T06:04:52;8.27;;;3.43;;
70545;SDS011;58098;51.680;5.134;2022-10-16T06:07:18;6.47;;;3.25;;
70545;SDS011;58098;51.680;5.134;2022-10-16T06:09:44;7.67;;;3.30;;
70545;SDS011;58098;51.680;5.134;2022-10-16T06:12:09;14.80;;;3.60;;
70545;SDS011;58098;51.680;5.134;2022-10-16T06:14:34;6.17;;;3.57;;
70545;SDS011;58098;51.680;5.134;2022-10-16T06:16:59;7.13;;;3.30;;
70545;SDS011;58098;51.680;5.134;2022-10-16T06:19:24;8.63;;;3.53;;
70545;SDS011;58098;51.680;5.134;2022-10-16T06:21:49;11.23;;;3.40;;
70545;SDS011;58098;51.680;5.134;2022-10-16T06:24:15;7.70;;;3.23;;
70545;SDS011;58098;51.680;5.134;2022-10-16T06:26:40;4.60;;;3.37;;
70545;SDS011;58098;51.680;5.134;2022-10-16T06:29:05;5.53;;;3.23;;
70545;SDS011;58098;51.680;5.134;2022-10-16T06:31:30;6.00;;;3.73;;
70545;SDS011;58098;51.680;5.134;2022-10-16T06:33:58;7.82;;;3.83;;
70545;SDS011;58098;51.680;5.134;2022-10-16T06:36:23;5.70;;;2.90;;
70545;SDS011;58098;51.680;5.134;2022-10-16T06:38:49;8.05;;;3.05;;
70545;SDS011;58098;51.680;5.134;2022-10-16T06:41:15;7.40;;;3.43;;
70545;SDS011;58098;51.680;5.134;2022-10-16T06:43:41;9.50;;;3.58;;
70545;SDS011;58098;51.680;5.134;2022-10-16T06:46:07;5.70;;;3.43;;
70545;SDS011;58098;51.680;5.134;2022-10-16T06:48:34;5.88;;;3.05;;
70545;SDS011;58098;51.680;5.134;2022-10-16T06:53:24;5.25;;;3.13;;
70545;SDS011;58098;51.680;5.134;2022-10-16T06:55:50;6.00;;;3.33;;
70545;SDS011;58098;51.680;5.134;2022-10-16T06:58:15;4.33;;;3.07;;
70545;SDS011;58098;51.680;5.134;2022-10-16T07:00:40;7.00;;;3.33;;
70545;SDS011;58098;51.680;5.134;2022-10-16T07:03:05;5.27;;;3.10;;
70545;SDS011;58098;51.680;5.134;2022-10-16T07:05:30;7.10;;;3.10;;
70545;SDS011;58098;51.680;5.134;2022-10-16T07:07:56;6.07;;;3.00;;
70545;SDS011;58098;51.680;5.134;2022-10-16T07:10:21;7.10;;;2.80;;
70545;SDS011;58098;51.680;5.134;2022-10-16T07:12:49;5.72;;;3.25;;
70545;SDS011;58098;51.680;5.134;2022-10-16T07:15:14;7.30;;;3.10;;
70545;SDS011;58098;51.680;5.134;2022-10-16T07:17:39;7.17;;;3.30;;
70545;SDS011;58098;51.680;5.134;2022-10-16T07:20:04;7.77;;;3.30;;
70545;SDS011;58098;51.680;5.134;2022-10-16T07:22:29;9.33;;;3.40;;
70545;SDS011;58098;51.680;5.134;2022-10-16T07:24:55;5.50;;;3.20;;
70545;SDS011;58098;51.680;5.134;2022-10-16T07:27:20;6.43;;;3.50;;
70545;SDS011;58098;51.680;5.134;2022-10-16T07:29:48;12.77;;;3.35;;
70545;SDS011;58098;51.680;5.134;2022-10-16T07:32:13;8.33;;;2.93;;
70545;SDS011;58098;51.680;5.134;2022-10-16T07:34:39;6.43;;;3.30;;
70545;SDS011;58098;51.680;5.134;2022-10-16T07:37:04;6.20;;;3.57;;
70545;SDS011;58098;51.680;5.134;2022-10-16T07:39:29;7.90;;;3.47;;
70545;SDS011;58098;51.680;5.134;2022-10-16T07:41:55;9.63;;;3.40;;
70545;SDS011;58098;51.680;5.134;2022-10-16T07:44:20;6.17;;;3.30;;
70545;SDS011;58098;51.680;5.134;2022-10-16T07:46:45;5.53;;;3.63;;
70545;SDS011;58098;51.680;5.134;2022-10-16T07:49:11;9.40;;;3.92;;
70545;SDS011;58098;51.680;5.134;2022-10-16T07:51:36;6.20;;;3.50;;
70545;SDS011;58098;51.680;5.134;2022-10-16T07:54:03;7.82;;;3.30;;
70545;SDS011;58098;51.680;5.134;2022-10-16T07:56:28;7.25;;;3.40;;
70545;SDS011;58098;51.680;5.134;2022-10-16T07:58:55;6.07;;;3.70;;
70545;SDS011;58098;51.680;5.134;2022-10-16T08:01:21;6.22;;;3.38;;
70545;SDS011;58098;51.680;5.134;2022-10-16T08:03:47;8.00;;;3.30;;
70545;SDS011;58098;51.680;5.134;2022-10-16T08:06:13;7.55;;;3.30;;
70545;SDS011;58098;51.680;5.134;2022-10-16T08:08:38;6.80;;;3.50;;
70545;SDS011;58098;51.680;5.134;2022-10-16T08:11:03;11.57;;;3.50;;
70545;SDS011;58098;51.680;5.134;2022-10-16T08:13:29;11.80;;;4.17;;
70545;SDS011;58098;51.680;5.134;2022-10-16T08:15:54;9.23;;;4.10;;
70545;SDS011;58098;51.680;5.134;2022-10-16T08:18:20;7.07;;;3.33;;
70545;SDS011;58098;51.680;5.134;2022-10-16T08:20:45;8.23;;;3.43;;
70545;SDS011;58098;51.680;5.134;2022-10-16T08:23:11;9.63;;;3.53;;
70545;SDS011;58098;51.680;5.134;2022-10-16T08:25:37;6.30;;;3.42;;
70545;SDS011;58098;51.680;5.134;2022-10-16T08:28:03;9.13;;;3.60;;
70545;SDS011;58098;51.680;5.134;2022-10-16T08:30:28;11.45;;;3.25;;
70545;SDS011;58098;51.680;5.134;2022-10-16T08:32:54;8.37;;;3.20;;
70545;SDS011;58098;51.680;5.134;2022-10-16T08:35:19;7.77;;;2.80;;
70545;SDS011;58098;51.680;5.134;2022-10-16T08:37:44;8.23;;;3.30;;
70545;SDS011;58098;51.680;5.134;2022-10-16T08:40:17;5.93;;;3.30;;
70545;SDS011;58098;51.680;5.134;2022-10-16T08:48:20;8.50;;;3.05;;
70545;SDS011;58098;51.680;5.134;2022-10-16T08:50:49;9.13;;;3.20;;
70545;SDS011;58098;51.680;5.134;2022-10-16T08:53:20;7.57;;;3.00;;
70545;SDS011;58098;51.680;5.134;2022-10-16T08:55:51;5.85;;;2.72;;
70545;SDS011;58098;51.680;5.134;2022-10-16T08:58:26;8.13;;;3.00;;
70545;SDS011;58098;51.680;5.134;2022-10-16T09:00:53;6.50;;;3.03;;
70545;SDS011;58098;51.680;5.134;2022-10-16T09:05:52;13.90;;;2.80;;
70545;SDS011;58098;51.680;5.134;2022-10-16T09:19:05;11.88;;;2.70;;
70545;SDS011;58098;51.680;5.134;2022-10-16T09:21:35;10.75;;;2.67;;
70545;SDS011;58098;51.680;5.134;2022-10-16T09:24:07;12.20;;;2.90;;
70545;SDS011;58098;51.680;5.134;2022-10-16T09:26:33;12.23;;;2.70;;
70545;SDS011;58098;51.680;5.134;2022-10-16T09:28:59;10.53;;;2.30;;
70545;SDS011;58098;51.680;5.134;2022-10-16T09:31:24;11.50;;;2.80;;
70545;SDS011;58098;51.680;5.134;2022-10-16T09:33:51;18.77;;;3.13;;
70545;SDS011;58098;51.680;5.134;2022-10-16T09:36:17;10.82;;;2.70;;
70545;SDS011;58098;51.680;5.134;2022-10-16T09:38:43;11.00;;;2.57;;
70545;SDS011;58098;51.680;5.134;2022-10-16T09:43:40;13.00;;;2.72;;
70545;SDS011;58098;51.680;5.134;2022-10-16T09:46:07;11.15;;;2.70;;
70545;SDS011;58098;51.680;5.134;2022-10-16T09:48:36;13.50;;;2.70;;
70545;SDS011;58098;51.680;5.134;2022-10-16T09:51:03;13.32;;;2.90;;
70545;SDS011;58098;51.680;5.134;2022-10-16T09:53:44;15.57;;;2.92;;
70545;SDS011;58098;51.680;5.134;2022-10-16T09:56:11;8.77;;;2.70;;
70545;SDS011;58098;51.680;5.134;2022-10-16T09:58:41;11.98;;;2.70;;
70545;SDS011;58098;51.680;5.134;2022-10-16T10:01:11;10.93;;;2.33;;
70545;SDS011;58098;51.680;5.134;2022-10-16T10:03:37;10.27;;;2.60;;
70545;SDS011;58098;51.680;5.134;2022-10-16T10:06:14;11.90;;;2.70;;
70545;SDS011;58098;51.680;5.134;2022-10-16T10:08:41;12.38;;;2.80;;
70545;SDS011;58098;51.680;5.134;2022-10-16T10:11:06;10.17;;;2.10;;
70545;SDS011;58098;51.680;5.134;2022-10-16T10:13:31;18.63;;;3.40;;
70545;SDS011;58098;51.680;5.134;2022-10-16T10:15:57;13.20;;;2.40;;
70545;SDS011;58098;51.680;5.134;2022-10-16T10:18:22;11.43;;;2.30;;
70545;SDS011;58098;51.680;5.134;2022-10-16T10:21:02;12.40;;;2.28;;
70545;SDS011;58098;51.680;5.134;2022-10-16T10:23:28;14.68;;;3.17;;
70545;SDS011;58098;51.680;5.134;2022-10-16T10:26:01;11.73;;;2.50;;
70545;SDS011;58098;51.680;5.134;2022-10-16T10:30:56;17.80;;;2.85;;
70545;SDS011;58098;51.680;5.134;2022-10-16T10:38:50;13.43;;;2.65;;
70545;SDS011;58098;51.680;5.134;2022-10-16T10:46:25;16.33;;;2.47;;
70545;SDS011;58098;51.680;5.134;2022-10-16T10:51:58;12.73;;;2.55;;
70545;SDS011;58098;51.680;5.134;2022-10-16T10:54:17;14.15;;;2.30;;
70545;SDS011;58098;51.680;5.134;2022-10-16T10:56:45;14.50;;;2.30;;
70545;SDS011;58098;51.680;5.134;2022-10-16T10:59:28;15.80;;;2.25;;
70545;SDS011;58098;51.680;5.134;2022-10-16T11:04:54;14.93;;;2.60;;
70545;SDS011;58098;51.680;5.134;2022-10-16T11:09:48;14.63;;;2.37;;
70545;SDS011;58098;51.680;5.134;2022-10-16T11:14:43;11.17;;;2.13;;
70545;SDS011;58098;51.680;5.134;2022-10-16T11:17:33;15.30;;;2.50;;
70545;SDS011;58098;51.680;5.134;2022-10-16T11:22:26;11.77;;;2.10;;
70545;SDS011;58098;51.680;5.134;2022-10-16T11:27:43;15.93;;;2.55;;
70545;SDS011;58098;51.680;5.134;2022-10-16T11:33:21;13.65;;;2.58;;
70545;SDS011;58098;51.680;5.134;2022-10-16T11:38:03;15.48;;;2.35;;
70545;SDS011;58098;51.680;5.134;2022-10-16T11:40:34;14.30;;;2.78;;
70545;SDS011;58098;51.680;5.134;2022-10-16T11:43:10;16.80;;;2.50;;
70545;SDS011;58098;51.680;5.134;2022-10-16T11:45:57;16.33;;;2.42;;
70545;SDS011;58098;51.680;5.134;2022-10-16T11:48:27;18.15;;;2.83;;
70545;SDS011;58098;51.680;5.134;2022-10-16T11:55:45;11.90;;;2.20;;
70545;SDS011;58098;51.680;5.134;2022-10-16T12:08:15;17.63;;;2.60;;
70545;SDS011;58098;51.680;5.134;2022-10-16T12:10:42;10.32;;;2.15;;
70545;SDS011;58098;51.680;5.134;2022-10-16T12:15:51;10.90;;;2.47;;
70545;SDS011;58098;51.680;5.134;2022-10-16T12:18:23;13.20;;;2.10;;
70545;SDS011;58098;51.680;5.134;2022-10-16T12:20:58;16.05;;;2.30;;
70545;SDS011;58098;51.680;5.134;2022-10-16T12:23:29;19.75;;;2.78;;
70545;SDS011;58098;51.680;5.134;2022-10-16T12:25:55;13.63;;;2.30;;
70545;SDS011;58098;51.680;5.134;2022-10-16T12:28:21;17.05;;;2.22;;
70545;SDS011;58098;51.680;5.134;2022-10-16T12:30:54;19.02;;;2.53;;
70545;SDS011;58098;51.680;5.134;2022-10-16T12:33:21;15.20;;;2.47;;
70545;SDS011;58098;51.680;5.134;2022-10-16T12:35:47;13.10;;;2.25;;
70545;SDS011;58098;51.680;5.134;2022-10-16T12:38:15;10.23;;;2.20;;
70545;SDS011;58098;51.680;5.134;2022-10-16T12:40:41;13.02;;;2.17;;
70545;SDS011;58098;51.680;5.134;2022-10-16T12:45:45;11.95;;;2.10;;
70545;SDS011;58098;51.680;5.134;2022-10-16T12:48:18;16.83;;;2.93;;
70545;SDS011;58098;51.680;5.134;2022-10-16T12:50:44;12.70;;;2.03;;
70545;SDS011;58098;51.680;5.134;2022-10-16T12:53:19;13.47;;;2.37;;
70545;SDS011;58098;51.680;5.134;2022-10-16T13:01:12;11.68;;;2.47;;
70545;SDS011;58098;51.680;5.134;2022-10-16T13:03:47;12.13;;;2.47;;
70545;SDS011;58098;51.680;5.134;2022-10-16T13:06:37;15.07;;;2.40;;
70545;SDS011;58098;51.680;5.134;2022-10-16T13:09:17;17.67;;;2.50;;
70545;SDS011;58098;51.680;5.134;2022-10-16T13:17:19;11.40;;;2.33;;
70545;SDS011;58098;51.680;5.134;2022-10-16T13:20:03;13.95;;;2.58;;
70545;SDS011;58098;51.680;5.134;2022-10-16T13:27:55;13.88;;;2.35;;
70545;SDS011;58098;51.680;5.134;2022-10-16T13:30:25;11.67;;;2.40;;
70545;SDS011;58098;51.680;5.134;2022-10-16T13:32:53;15.82;;;2.53;;
70545;SDS011;58098;51.680;5.134;2022-10-16T13:35:30;13.93;;;2.38;;
70545;SDS011;58098;51.680;5.134;2022-10-16T13:40:36;10.40;;;2.50;;
70545;SDS011;58098;51.680;5.134;2022-10-16T13:43:01;9.43;;;2.40;;
70545;SDS011;58098;51.680;5.134;2022-10-16T13:45:26;9.10;;;2.03;;
70545;SDS011;58098;51.680;5.134;2022-10-16T13:48:05;12.40;;;3.30;;
70545;SDS011;58098;51.680;5.134;2022-10-16T13:50:30;12.60;;;2.45;;
70545;SDS011;58098;51.680;5.134;2022-10-16T13:53:06;13.23;;;2.90;;
70545;SDS011;58098;51.680;5.134;2022-10-16T13:55:31;12.02;;;2.40;;
70545;SDS011;58098;51.680;5.134;2022-10-16T13:58:12;8.83;;;2.10;;
70545;SDS011;58098;51.680;5.134;2022-10-16T14:00:37;9.23;;;2.58;;
70545;SDS011;58098;51.680;5.134;2022-10-16T14:03:07;9.13;;;2.20;;
70545;SDS011;58098;51.680;5.134;2022-10-16T14:05:36;11.77;;;2.53;;
70545;SDS011;58098;51.680;5.134;2022-10-16T14:08:01;13.63;;;2.63;;
70545;SDS011;58098;51.680;5.134;2022-10-16T14:10:27;11.83;;;2.77;;
70545;SDS011;58098;51.680;5.134;2022-10-16T14:13:04;9.73;;;2.70;;
70545;SDS011;58098;51.680;5.134;2022-10-16T14:15:31;13.35;;;2.40;;
70545;SDS011;58098;51.680;5.134;2022-10-16T14:17:56;13.07;;;2.63;;
70545;SDS011;58098;51.680;5.134;2022-10-16T14:20:24;13.30;;;2.50;;
70545;SDS011;58098;51.680;5.134;2022-10-16T14:22:57;7.18;;;2.15;;
70545;SDS011;58098;51.680;5.134;2022-10-16T14:25:24;9.27;;;2.57;;
70545;SDS011;58098;51.680;5.134;2022-10-16T14:30:27;10.25;;;2.45;;
70545;SDS011;58098;51.680;5.134;2022-10-16T14:32:54;14.93;;;2.30;;
70545;SDS011;58098;51.680;5.134;2022-10-16T14:35:32;10.57;;;2.45;;
70545;SDS011;58098;51.680;5.134;2022-10-16T14:37:58;13.57;;;2.50;;
70545;SDS011;58098;51.680;5.134;2022-10-16T14:40:25;9.43;;;2.30;;
70545;SDS011;58098;51.680;5.134;2022-10-16T14:42:50;9.57;;;2.50;;
70545;SDS011;58098;51.680;5.134;2022-10-16T14:45:20;8.27;;;2.50;;
70545;SDS011;58098;51.680;5.134;2022-10-16T14:47:47;8.35;;;2.33;;
70545;SDS011;58098;51.680;5.134;2022-10-16T14:50:13;12.40;;;2.40;;
70545;SDS011;58098;51.680;5.134;2022-10-16T14:52:38;10.73;;;2.40;;
70545;SDS011;58098;51.680;5.134;2022-10-16T14:55:04;7.83;;;2.50;;
70545;SDS011;58098;51.680;5.134;2022-10-16T14:57:30;12.53;;;2.83;;
70545;SDS011;58098;51.680;5.134;2022-10-16T14:59:57;8.75;;;2.30;;
70545;SDS011;58098;51.680;5.134;2022-10-16T15:02:35;9.20;;;2.20;;
70545;SDS011;58098;51.680;5.134;2022-10-16T15:05:10;14.00;;;2.60;;
70545;SDS011;58098;51.680;5.134;2022-10-16T15:07:37;11.13;;;2.55;;
70545;SDS011;58098;51.680;5.134;2022-10-16T15:10:02;9.10;;;2.70;;
70545;SDS011;58098;51.680;5.134;2022-10-16T15:12:27;12.03;;;2.57;;
70545;SDS011;58098;51.680;5.134;2022-10-16T15:14:53;10.53;;;2.70;;
70545;SDS011;58098;51.680;5.134;2022-10-16T15:17:18;9.70;;;2.83;;
70545;SDS011;58098;51.680;5.134;2022-10-16T15:19:43;11.97;;;3.30;;
70545;SDS011;58098;51.680;5.134;2022-10-16T15:22:09;8.40;;;3.20;;
70545;SDS011;58098;51.680;5.134;2022-10-16T15:24:35;10.48;;;3.30;;
70545;SDS011;58098;51.680;5.134;2022-10-16T15:27:00;8.03;;;2.80;;
70545;SDS011;58098;51.680;5.134;2022-10-16T15:29:25;12.73;;;3.43;;
70545;SDS011;58098;51.680;5.134;2022-10-16T15:31:50;9.80;;;2.63;;
70545;SDS011;58098;51.680;5.134;2022-10-16T15:34:16;10.33;;;2.83;;
70545;SDS011;58098;51.680;5.134;2022-10-16T15:36:43;13.38;;;3.10;;
70545;SDS011;58098;51.680;5.134;2022-10-16T15:39:16;10.70;;;3.40;;
70545;SDS011;58098;51.680;5.134;2022-10-16T15:41:41;10.10;;;3.15;;
70545;SDS011;58098;51.680;5.134;2022-10-16T15:44:07;11.40;;;3.10;;
70545;SDS011;58098;51.680;5.134;2022-10-16T15:46:32;10.00;;;3.57;;
70545;SDS011;58098;51.680;5.134;2022-10-16T15:48:59;9.48;;;2.92;;
70545;SDS011;58098;51.680;5.134;2022-10-16T15:51:24;11.70;;;3.80;;
70545;SDS011;58098;51.680;5.134;2022-10-16T15:53:49;15.13;;;3.28;;
70545;SDS011;58098;51.680;5.134;2022-10-16T15:56:16;7.63;;;2.95;;
70545;SDS011;58098;51.680;5.134;2022-10-16T15:58:41;9.67;;;3.23;;
70545;SDS011;58098;51.680;5.134;2022-10-16T16:01:06;8.43;;;2.53;;
70545;SDS011;58098;51.680;5.134;2022-10-16T16:03:34;13.60;;;3.60;;
70545;SDS011;58098;51.680;5.134;2022-10-16T16:06:04;8.77;;;3.05;;
70545;SDS011;58098;51.680;5.134;2022-10-16T16:08:30;10.73;;;3.60;;
70545;SDS011;58098;51.680;5.134;2022-10-16T16:11:02;10.00;;;3.30;;
70545;SDS011;58098;51.680;5.134;2022-10-16T16:13:28;11.80;;;3.65;;
70545;SDS011;58098;51.680;5.134;2022-10-16T16:15:53;15.60;;;5.13;;
70545;SDS011;58098;51.680;5.134;2022-10-16T16:18:18;18.33;;;5.70;;
70545;SDS011;58098;51.680;5.134;2022-10-16T16:20:43;15.90;;;6.20;;
70545;SDS011;58098;51.680;5.134;2022-10-16T16:23:09;8.60;;;3.40;;
70545;SDS011;58098;51.680;5.134;2022-10-16T16:25:34;15.60;;;4.63;;
70545;SDS011;58098;51.680;5.134;2022-10-16T16:27:59;11.70;;;3.77;;
70545;SDS011;58098;51.680;5.134;2022-10-16T16:30:24;12.57;;;3.50;;
70545;SDS011;58098;51.680;5.134;2022-10-16T16:32:49;9.90;;;3.57;;
70545;SDS011;58098;51.680;5.134;2022-10-16T16:35:15;11.97;;;3.60;;